createdAt,value
2017-08-30T00:02:26.837Z,44.30
2017-08-30T00:05:01.358Z,45.30
2017-08-30T00:07:35.850Z,43.07
2017-08-30T00:10:10.209Z,43.90
2017-08-30T00:12:44.725Z,46.60
2017-08-30T00:15:19.129Z,44.80
2017-08-30T00:17:53.665Z,46.97
2017-08-30T00:20:28.212Z,43.10
2017-08-30T00:23:02.682Z,43.10
2017-08-30T00:25:49.040Z,41.00
2017-08-30T00:28:23.411Z,42.03
2017-08-30T00:30:58.560Z,40.37
2017-08-30T00:33:33.025Z,41.97
2017-08-30T00:36:07.585Z,36.63
2017-08-30T00:38:41.924Z,39.73
2017-08-30T00:41:16.489Z,40.90
2017-08-30T00:43:50.968Z,37.53
2017-08-30T00:46:25.600Z,39.70
2017-08-30T00:48:59.969Z,38.00
2017-08-30T00:51:34.378Z,36.70
2017-08-30T00:54:08.788Z,41.80
2017-08-30T00:56:43.482Z,37.50
2017-08-30T00:59:17.995Z,35.33
2017-08-30T01:01:52.526Z,33.95
2017-08-30T01:04:27.057Z,32.03
2017-08-30T01:07:01.461Z,34.17
2017-08-30T01:09:36.201Z,30.85
2017-08-30T01:12:10.569Z,32.37
2017-08-30T01:14:45.112Z,32.40
2017-08-30T01:17:19.618Z,33.00
2017-08-30T01:19:54.386Z,30.97
2017-08-30T01:22:28.852Z,35.00
2017-08-30T01:25:03.360Z,35.30
2017-08-30T01:27:37.840Z,37.07
2017-08-30T01:30:12.225Z,35.75
2017-08-30T01:32:46.827Z,37.55
2017-08-30T01:35:21.180Z,37.20
2017-08-30T01:37:55.720Z,33.87
2017-08-30T01:40:30.247Z,36.40
2017-08-30T01:43:04.673Z,38.80
2017-08-30T01:45:39.208Z,37.17
2017-08-30T01:48:13.709Z,40.37
2017-08-30T01:50:48.324Z,37.70
2017-08-30T01:53:22.659Z,39.90
2017-08-30T01:55:57.163Z,40.17
2017-08-30T01:58:31.696Z,38.53
2017-08-30T02:01:06.212Z,43.10
2017-08-30T02:03:40.689Z,39.20
2017-08-30T02:06:15.364Z,40.03
2017-08-30T02:08:49.880Z,42.43
2017-08-30T02:11:24.414Z,44.35
2017-08-30T02:13:58.750Z,40.10
2017-08-30T02:16:33.111Z,41.63
2017-08-30T02:19:07.492Z,44.90
2017-08-30T02:21:41.837Z,44.65
2017-08-30T02:24:16.474Z,45.87
2017-08-30T02:26:50.805Z,45.78
2017-08-30T02:29:25.215Z,46.55
2017-08-30T02:31:59.553Z,48.55
2017-08-30T02:34:34.123Z,49.80
2017-08-30T02:37:08.619Z,43.30
2017-08-30T02:39:43.042Z,46.40
2017-08-30T02:42:17.418Z,47.55
2017-08-30T02:44:51.953Z,45.28
2017-08-30T02:47:26.432Z,45.15
2017-08-30T02:50:00.998Z,47.70
2017-08-30T02:52:35.532Z,45.30
2017-08-30T02:55:10.297Z,45.90
2017-08-30T02:57:44.736Z,42.83
2017-08-30T03:00:19.314Z,41.37
2017-08-30T03:02:53.948Z,45.95
2017-08-30T03:05:28.428Z,44.25
2017-08-30T03:08:03.196Z,45.67
2017-08-30T03:10:37.708Z,44.20
2017-08-30T03:13:12.123Z,45.38
2017-08-30T03:15:46.424Z,49.13
2017-08-30T03:18:20.857Z,51.45
2017-08-30T03:20:55.356Z,49.75
2017-08-30T03:23:29.795Z,45.03
2017-08-30T03:26:04.172Z,46.35
2017-08-30T03:28:38.673Z,52.40
2017-08-30T03:31:13.137Z,50.12
2017-08-30T03:33:47.589Z,55.55
2017-08-30T03:36:22.268Z,56.80
2017-08-30T03:38:56.710Z,54.33
2017-08-30T03:41:31.171Z,55.78
2017-08-30T03:44:05.452Z,50.90
2017-08-30T03:46:39.873Z,53.08
2017-08-30T03:49:14.229Z,50.65
2017-08-30T03:51:49.014Z,56.72
2017-08-30T03:54:23.428Z,57.58
2017-08-30T03:56:58.045Z,61.72
2017-08-30T03:59:32.572Z,55.25
2017-08-30T04:02:07.105Z,55.17
2017-08-30T04:04:41.607Z,61.88
2017-08-30T04:07:16.168Z,56.22
2017-08-30T04:09:50.532Z,51.97
2017-08-30T04:12:24.978Z,55.03
2017-08-30T04:14:59.496Z,52.58
2017-08-30T04:17:33.942Z,55.12
2017-08-30T04:23:11.961Z,61.28
2017-08-30T04:25:46.346Z,53.00
2017-08-30T04:28:20.765Z,55.67
2017-08-30T04:30:55.332Z,57.33
2017-08-30T04:33:29.994Z,58.87
2017-08-30T04:36:04.324Z,65.75
2017-08-30T04:38:38.657Z,61.00
2017-08-30T04:41:13.123Z,55.50
2017-08-30T04:43:47.493Z,54.25
2017-08-30T04:46:21.885Z,57.65
2017-08-30T04:48:56.261Z,57.90
2017-08-30T04:51:30.579Z,68.45
2017-08-30T04:54:05.029Z,59.72
2017-08-30T04:56:39.541Z,63.10
2017-08-30T04:59:13.916Z,60.03
2017-08-30T05:01:48.362Z,61.13
2017-08-30T05:04:22.753Z,62.58
2017-08-30T05:06:57.120Z,61.65
2017-08-30T05:09:31.660Z,58.70
2017-08-30T05:12:06.159Z,61.58
2017-08-30T05:14:40.583Z,59.75
2017-08-30T05:17:15.060Z,59.38
2017-08-30T05:19:49.687Z,54.93
2017-08-30T05:22:24.063Z,63.05
2017-08-30T05:24:58.536Z,54.38
2017-08-30T05:27:32.913Z,55.53
2017-08-30T05:30:07.552Z,54.88
2017-08-30T05:32:42.091Z,58.45
2017-08-30T05:35:16.604Z,52.75
2017-08-30T05:37:51.114Z,56.10
2017-08-30T05:40:25.700Z,55.55
2017-08-30T05:43:00.025Z,57.70
2017-08-30T05:45:34.563Z,60.25
2017-08-30T05:48:08.956Z,57.40
2017-08-30T05:50:43.480Z,60.28
2017-08-30T05:53:17.853Z,59.67
2017-08-30T05:55:52.567Z,57.60
2017-08-30T05:58:27.090Z,59.20
2017-08-30T06:01:01.461Z,58.33
2017-08-30T06:03:35.970Z,61.90
2017-08-30T06:06:10.360Z,53.58
2017-08-30T06:08:44.729Z,59.03
2017-08-30T06:11:19.078Z,53.30
2017-08-30T06:13:53.581Z,51.63
2017-08-30T06:16:28.237Z,49.40
2017-08-30T06:19:02.746Z,48.25
2017-08-30T06:21:37.486Z,46.10
2017-08-30T06:24:11.835Z,40.33
2017-08-30T06:26:46.348Z,41.70
2017-08-30T06:29:20.869Z,38.47
2017-08-30T06:32:12.141Z,34.20
2017-08-30T06:34:46.467Z,36.37
2017-08-30T06:37:20.882Z,36.87
2017-08-30T06:39:55.405Z,43.03
2017-08-30T06:42:29.793Z,38.17
2017-08-30T06:45:04.229Z,35.43
2017-08-30T06:47:38.665Z,35.33
2017-08-30T06:50:13.098Z,34.60
2017-08-30T06:52:47.434Z,35.40
2017-08-30T06:55:21.745Z,35.20
2017-08-30T06:57:56.152Z,35.30
2017-08-30T07:00:30.534Z,34.47
2017-08-30T07:03:05.183Z,32.17
2017-08-30T07:05:40.448Z,29.63
2017-08-30T07:08:16.177Z,30.25
2017-08-30T07:10:50.562Z,31.73
2017-08-30T07:13:25.130Z,31.37
2017-08-30T07:15:59.489Z,34.63
2017-08-30T07:18:34.170Z,33.50
2017-08-30T07:21:08.470Z,31.40
2017-08-30T07:23:42.941Z,31.27
2017-08-30T07:26:17.410Z,31.00
2017-08-30T07:28:52.031Z,30.97
2017-08-30T07:31:26.360Z,32.37
2017-08-30T07:34:01.081Z,27.80
2017-08-30T07:36:35.537Z,30.00
2017-08-30T07:39:09.865Z,29.53
2017-08-30T07:41:44.450Z,33.00
2017-08-30T07:44:18.853Z,33.50
2017-08-30T07:46:53.488Z,32.40
2017-08-30T07:49:27.989Z,32.23
2017-08-30T07:52:02.637Z,35.00
2017-08-30T07:54:36.972Z,36.60
2017-08-30T07:57:11.640Z,37.80
2017-08-30T07:59:46.006Z,35.87
2017-08-30T08:02:20.616Z,38.43
2017-08-30T08:04:54.956Z,42.77
2017-08-30T08:07:29.405Z,51.23
2017-08-30T08:10:03.743Z,48.57
2017-08-30T08:12:38.665Z,46.40
2017-08-30T08:15:13.082Z,51.90
2017-08-30T08:17:47.497Z,57.60
2017-08-30T08:20:22.113Z,53.43
2017-08-30T08:22:56.477Z,53.17
2017-08-30T08:25:30.913Z,45.07
2017-08-30T08:28:05.496Z,41.83
2017-08-30T08:30:40.076Z,37.67
2017-08-30T08:33:14.501Z,42.77
2017-08-30T08:35:49.019Z,43.57
2017-08-30T08:38:23.536Z,45.47
2017-08-30T08:40:57.931Z,42.40
2017-08-30T08:43:32.566Z,44.97
2017-08-30T08:46:07.059Z,45.70
2017-08-30T08:48:41.836Z,58.17
2017-08-30T08:51:16.435Z,50.43
2017-08-30T08:53:51.156Z,41.00
2017-08-30T08:56:25.687Z,38.23
2017-08-30T08:59:00.120Z,34.80
2017-08-30T09:01:34.593Z,29.97
2017-08-30T09:04:09.264Z,31.00
2017-08-30T09:06:43.764Z,32.30
2017-08-30T09:09:18.122Z,28.80
2017-08-30T09:11:52.573Z,24.50
2017-08-30T09:14:27.435Z,24.07
2017-08-30T09:17:01.938Z,23.07
2017-08-30T09:19:36.444Z,26.27
2017-08-30T09:22:10.989Z,25.60
2017-08-30T09:24:45.516Z,21.97
2017-08-30T09:27:19.909Z,23.17
2017-08-30T09:29:54.349Z,22.63
2017-08-30T09:32:28.977Z,22.73
2017-08-30T09:35:03.543Z,18.70
2017-08-30T09:37:38.041Z,17.90
2017-08-30T09:40:12.558Z,19.97
2017-08-30T09:42:46.901Z,16.57
2017-08-30T09:45:21.372Z,17.30
2017-08-30T09:47:56.024Z,18.07
2017-08-30T09:50:30.402Z,16.80
2017-08-30T09:53:04.782Z,17.37
2017-08-30T09:55:39.269Z,16.60
2017-08-30T09:58:13.895Z,14.73
2017-08-30T10:00:48.246Z,15.93
2017-08-30T10:03:22.733Z,16.37
2017-08-30T10:05:57.225Z,15.93
2017-08-30T10:08:31.584Z,17.77
2017-08-30T10:11:05.936Z,18.27
2017-08-30T10:13:40.277Z,17.30
2017-08-30T10:16:14.696Z,18.17
2017-08-30T10:18:49.067Z,18.70
2017-08-30T10:21:23.544Z,17.20
2017-08-30T10:23:57.925Z,16.80
2017-08-30T10:26:32.484Z,17.63
2017-08-30T10:29:06.870Z,14.17
2017-08-30T10:31:41.425Z,19.10
2017-08-30T10:34:15.788Z,13.70
2017-08-30T10:36:50.296Z,15.20
2017-08-30T10:39:24.695Z,14.13
2017-08-30T10:41:59.170Z,13.40
2017-08-30T10:44:33.849Z,12.60
2017-08-30T10:47:08.365Z,13.07
2017-08-30T10:49:42.989Z,11.93
2017-08-30T10:52:17.439Z,11.90
2017-08-30T10:54:51.824Z,12.50
2017-08-30T10:57:26.161Z,12.00
2017-08-30T11:00:00.689Z,11.17
2017-08-30T11:02:35.087Z,12.60
2017-08-30T11:05:09.386Z,11.10
2017-08-30T11:07:43.764Z,12.50
2017-08-30T11:10:18.211Z,10.13
2017-08-30T11:12:52.906Z,13.20
2017-08-30T11:15:27.285Z,13.33
2017-08-30T11:18:01.773Z,13.00
2017-08-30T11:20:36.170Z,13.13
2017-08-30T11:23:10.529Z,12.63
2017-08-30T11:25:44.953Z,11.83
2017-08-30T11:28:19.394Z,12.90
2017-08-30T11:30:53.945Z,11.60
2017-08-30T11:33:28.485Z,10.90
2017-08-30T11:36:03.141Z,13.20
2017-08-30T11:38:37.869Z,12.40
2017-08-30T11:41:12.295Z,13.30
2017-08-30T11:43:46.680Z,12.53
2017-08-30T11:46:21.012Z,14.47
2017-08-30T11:48:55.766Z,15.30
2017-08-30T11:51:30.247Z,17.20
2017-08-30T11:54:04.674Z,15.20
2017-08-30T11:56:39.000Z,14.80
2017-08-30T11:59:13.356Z,14.77
2017-08-30T12:01:47.702Z,14.00
2017-08-30T12:04:22.376Z,17.03
2017-08-30T12:06:56.891Z,16.03
2017-08-30T12:09:31.301Z,16.13
2017-08-30T12:12:05.749Z,17.40
2017-08-30T12:14:40.167Z,20.37
2017-08-30T12:17:14.665Z,22.43
2017-08-30T12:19:49.204Z,22.07
2017-08-30T12:22:23.527Z,25.40
2017-08-30T12:24:57.881Z,22.33
2017-08-30T12:27:33.118Z,21.23
2017-08-30T12:30:07.796Z,20.03
2017-08-30T12:32:42.244Z,19.43
2017-08-30T12:35:16.598Z,20.77
2017-08-30T12:37:56.878Z,19.60
2017-08-30T12:40:31.293Z,14.30
2017-08-30T12:43:05.816Z,15.67
2017-08-30T12:45:41.735Z,15.03
2017-08-30T12:48:16.081Z,12.00
2017-08-30T12:50:50.460Z,11.93
2017-08-30T12:53:24.753Z,12.60
2017-08-30T12:55:59.141Z,12.20
2017-08-30T12:58:33.624Z,12.17
2017-08-30T13:01:08.322Z,10.97
2017-08-30T13:03:42.838Z,13.23
2017-08-30T13:06:17.332Z,14.33
2017-08-30T13:08:51.869Z,15.40
2017-08-30T13:11:26.341Z,16.53
2017-08-30T13:14:00.797Z,22.17
2017-08-30T13:16:36.084Z,25.43
2017-08-30T13:19:10.549Z,28.10
2017-08-30T13:21:44.905Z,27.33
2017-08-30T13:24:19.344Z,28.70
2017-08-30T13:26:53.672Z,30.10
2017-08-30T13:29:28.112Z,29.57
2017-08-30T13:32:02.489Z,30.30
2017-08-30T13:34:37.113Z,26.20
2017-08-30T13:37:11.609Z,28.07
2017-08-30T13:39:45.966Z,30.20
2017-08-30T13:42:20.413Z,29.83
2017-08-30T13:44:54.985Z,29.67
2017-08-30T13:47:29.497Z,26.07
2017-08-30T13:50:03.953Z,29.33
2017-08-30T13:52:38.431Z,27.23
2017-08-30T13:55:12.887Z,26.03
2017-08-30T13:57:47.333Z,23.97
2017-08-30T14:00:21.684Z,24.30
2017-08-30T14:02:56.136Z,26.00
2017-08-30T14:05:30.552Z,27.70
2017-08-30T14:08:04.914Z,25.70
2017-08-30T14:10:39.237Z,24.80
2017-08-30T14:13:13.969Z,26.40
2017-08-30T14:15:49.235Z,22.70
2017-08-30T14:18:23.575Z,23.93
2017-08-30T14:20:58.021Z,23.03
2017-08-30T14:23:32.408Z,21.40
2017-08-30T14:26:07.512Z,22.27
2017-08-30T14:28:41.790Z,21.50
2017-08-30T14:31:16.809Z,19.97
2017-08-30T14:33:51.244Z,20.50
2017-08-30T14:36:25.580Z,22.43
2017-08-30T14:38:59.981Z,23.50
2017-08-30T14:41:34.529Z,22.23
2017-08-30T14:44:08.905Z,22.60
2017-08-30T14:46:43.343Z,22.40
2017-08-30T14:49:17.904Z,22.23
2017-08-30T14:51:52.303Z,24.10
2017-08-30T14:54:26.834Z,23.37
2017-08-30T14:57:01.165Z,24.67
2017-08-30T14:59:35.610Z,24.10
2017-08-30T15:02:10.138Z,26.40
2017-08-30T15:04:44.485Z,25.40
2017-08-30T15:07:18.917Z,24.70
2017-08-30T15:09:53.678Z,23.17
2017-08-30T15:12:28.223Z,23.97
2017-08-30T15:15:02.965Z,21.53
2017-08-30T15:17:37.561Z,22.90
2017-08-30T15:20:12.072Z,22.43
2017-08-30T15:22:46.620Z,22.50
2017-08-30T15:25:22.405Z,22.97
2017-08-30T15:27:56.884Z,22.43
2017-08-30T15:30:31.380Z,24.30
2017-08-30T15:33:05.812Z,22.30
2017-08-30T15:35:41.325Z,24.50
2017-08-30T15:38:15.817Z,21.87
2017-08-30T15:40:51.191Z,22.13
2017-08-30T15:43:25.588Z,21.90
2017-08-30T15:46:02.193Z,25.10
2017-08-30T15:48:36.773Z,21.70
2017-08-30T15:51:14.244Z,24.73
2017-08-30T15:53:49.802Z,21.47
2017-08-30T15:56:24.787Z,22.30
2017-08-30T15:58:59.659Z,21.87
2017-08-30T16:01:34.990Z,21.10
2017-08-30T16:04:10.178Z,21.07
2017-08-30T16:06:44.694Z,19.80
2017-08-30T16:09:19.774Z,21.07
2017-08-30T16:11:54.565Z,19.90
2017-08-30T16:14:29.118Z,20.57
2017-08-30T16:17:03.726Z,18.10
2017-08-30T16:19:38.397Z,18.70
2017-08-30T16:22:12.753Z,18.60
2017-08-30T16:24:47.680Z,19.30
2017-08-30T16:27:22.470Z,19.70
2017-08-30T16:29:57.138Z,20.03
2017-08-30T16:32:31.456Z,20.57
2017-08-30T16:35:05.971Z,19.90
2017-08-30T16:37:40.457Z,20.20
2017-08-30T16:40:14.880Z,21.00
2017-08-30T16:42:49.444Z,20.43
2017-08-30T16:45:23.937Z,21.70
2017-08-30T16:47:58.594Z,21.67
2017-08-30T16:50:33.093Z,20.60
2017-08-30T16:53:08.278Z,20.97
2017-08-30T16:55:42.941Z,19.83
2017-08-30T16:58:17.483Z,20.43
2017-08-30T17:00:53.266Z,20.33
2017-08-30T17:03:27.802Z,20.83
2017-08-30T17:06:02.284Z,23.10
2017-08-30T17:08:36.872Z,24.17
2017-08-30T17:11:11.372Z,24.53
2017-08-30T17:13:45.852Z,24.57
2017-08-30T17:16:20.333Z,25.60
2017-08-30T17:18:54.909Z,27.10
2017-08-30T17:21:29.301Z,27.43
2017-08-30T17:24:03.818Z,28.07
2017-08-30T17:26:38.326Z,29.83
2017-08-30T17:29:12.788Z,31.80
2017-08-30T17:31:47.243Z,32.57
2017-08-30T17:34:21.785Z,31.90
2017-08-30T17:36:56.149Z,33.67
2017-08-30T17:39:30.618Z,33.33
2017-08-30T17:42:05.200Z,30.80
2017-08-30T17:44:39.978Z,35.30
2017-08-30T17:47:15.166Z,35.60
2017-08-30T17:49:49.577Z,35.33
2017-08-30T17:52:24.176Z,41.40
2017-08-30T17:54:58.542Z,44.50
2017-08-30T17:57:32.984Z,41.37
2017-08-30T18:00:07.738Z,41.37
2017-08-30T18:02:42.209Z,38.57
2017-08-30T18:05:16.738Z,46.00
2017-08-30T18:07:51.337Z,43.63
2017-08-30T18:10:30.123Z,45.60
2017-08-30T18:13:04.464Z,44.93
2017-08-30T18:15:39.192Z,42.67
2017-08-30T18:18:13.484Z,40.80
2017-08-30T18:20:48.024Z,40.37
2017-08-30T18:23:22.335Z,43.67
2017-08-30T18:25:56.697Z,40.77
2017-08-30T18:28:31.267Z,44.93
2017-08-30T18:31:05.680Z,44.60
2017-08-30T18:33:40.140Z,45.70
2017-08-30T18:36:14.818Z,48.47
2017-08-30T18:38:49.245Z,49.70
2017-08-30T18:41:23.806Z,51.93
2017-08-30T18:43:59.248Z,50.47
2017-08-30T18:46:33.757Z,54.67
2017-08-30T18:49:08.169Z,48.60
2017-08-30T18:51:42.658Z,53.70
2017-08-30T18:54:17.017Z,47.70
2017-08-30T18:56:51.494Z,52.07
2017-08-30T18:59:26.263Z,48.47
2017-08-30T19:02:00.601Z,52.77
2017-08-30T19:04:35.073Z,51.87
2017-08-30T19:07:09.497Z,56.00
2017-08-30T19:09:43.985Z,59.27
2017-08-30T19:12:18.353Z,56.17
2017-08-30T19:14:53.449Z,63.00
2017-08-30T19:17:27.820Z,55.60
2017-08-30T19:20:02.213Z,59.97
2017-08-30T19:22:36.701Z,54.97
2017-08-30T19:25:11.964Z,56.07
2017-08-30T19:27:46.500Z,60.33
2017-08-30T19:30:20.972Z,51.43
2017-08-30T19:32:55.616Z,56.87
2017-08-30T19:35:29.889Z,55.50
2017-08-30T19:38:04.545Z,54.40
2017-08-30T19:40:38.941Z,57.70
2017-08-30T19:43:13.643Z,59.90
2017-08-30T19:45:48.120Z,56.92
2017-08-30T19:48:22.809Z,53.50
2017-08-30T19:50:57.197Z,62.40
2017-08-30T19:53:31.689Z,57.30
2017-08-30T19:56:06.065Z,62.58
2017-08-30T19:58:40.794Z,56.43
2017-08-30T20:01:15.096Z,63.30
2017-08-30T20:03:49.489Z,62.42
2017-08-30T20:06:23.929Z,48.60
2017-08-30T20:08:58.411Z,57.78
2017-08-30T20:11:32.841Z,57.62
2017-08-30T20:14:07.240Z,57.95
2017-08-30T20:16:41.696Z,54.10
2017-08-30T20:19:16.260Z,59.83
2017-08-30T20:21:50.789Z,67.05
2017-08-30T20:24:25.268Z,77.37
2017-08-30T20:27:00.008Z,83.47
2017-08-30T20:29:34.467Z,89.47
2017-08-30T20:32:08.912Z,102.28
2017-08-30T20:34:43.463Z,100.18
2017-08-30T20:37:17.992Z,98.30
2017-08-30T20:39:52.722Z,105.95
2017-08-30T20:42:27.227Z,93.97
2017-08-30T20:45:01.636Z,99.65
2017-08-30T20:47:36.105Z,112.78
2017-08-30T20:50:10.628Z,109.63
2017-08-30T20:52:45.101Z,105.12
2017-08-30T20:55:19.573Z,125.68
2017-08-30T20:57:53.993Z,114.70
2017-08-30T21:00:28.333Z,114.43
2017-08-30T21:03:02.773Z,105.82
2017-08-30T21:05:37.329Z,127.60
2017-08-30T21:08:11.752Z,111.03
2017-08-30T21:10:46.137Z,105.78
2017-08-30T21:13:20.604Z,93.28
2017-08-30T21:15:55.065Z,98.60
2017-08-30T21:18:29.639Z,89.25
2017-08-30T21:21:04.024Z,87.85
2017-08-30T21:23:38.545Z,86.30
2017-08-30T21:26:13.199Z,102.57
2017-08-30T21:28:47.679Z,99.15
2017-08-30T21:31:22.129Z,87.50
2017-08-30T21:33:56.541Z,110.22
2017-08-30T21:36:31.004Z,95.38
2017-08-30T21:39:05.500Z,97.62
2017-08-30T21:41:39.825Z,83.62
2017-08-30T21:44:14.444Z,87.28
2017-08-30T21:46:48.743Z,91.70
2017-08-30T21:49:23.368Z,113.62
2017-08-30T21:51:57.758Z,100.03
2017-08-30T21:54:32.260Z,110.95
2017-08-30T21:57:06.737Z,84.82
2017-08-30T21:59:41.461Z,128.43
2017-08-30T22:02:15.932Z,106.72
2017-08-30T22:04:50.337Z,112.95
2017-08-30T22:07:24.680Z,99.07
2017-08-30T22:09:59.224Z,113.60
2017-08-30T22:12:33.773Z,106.32
2017-08-30T22:15:08.173Z,122.78
2017-08-30T22:17:43.105Z,106.82
2017-08-30T22:20:17.630Z,100.07
2017-08-30T22:22:52.024Z,129.48
2017-08-30T22:25:26.716Z,85.65
2017-08-30T22:28:01.224Z,90.28
2017-08-30T22:30:35.583Z,96.63
2017-08-30T22:33:10.948Z,88.15
2017-08-30T22:35:45.347Z,70.32
2017-08-30T22:38:19.689Z,81.18
2017-08-30T22:40:54.102Z,76.82
2017-08-30T22:43:28.638Z,70.33
2017-08-30T22:46:03.004Z,65.97
2017-08-30T22:48:37.776Z,61.97
2017-08-30T22:51:12.070Z,68.73
2017-08-30T22:53:46.716Z,58.17
2017-08-30T22:56:21.035Z,58.22
2017-08-30T22:58:55.765Z,64.70
2017-08-30T23:01:30.133Z,54.08
2017-08-30T23:04:04.616Z,66.47
2017-08-30T23:06:39.077Z,63.03
2017-08-30T23:09:13.853Z,46.77
2017-08-30T23:11:48.133Z,39.43
2017-08-30T23:14:22.903Z,43.22
2017-08-30T23:16:57.475Z,42.67
2017-08-30T23:19:32.345Z,32.15
2017-08-30T23:22:06.721Z,34.85
2017-08-30T23:24:41.492Z,35.90
2017-08-30T23:27:15.841Z,46.28
2017-08-30T23:29:50.192Z,40.17
2017-08-30T23:32:24.677Z,47.97
2017-08-30T23:34:59.225Z,51.60
2017-08-30T23:37:33.781Z,55.27
2017-08-30T23:40:08.422Z,70.70
2017-08-30T23:42:42.983Z,46.72
2017-08-30T23:45:17.469Z,47.75
2017-08-30T23:47:51.996Z,47.95
2017-08-30T23:50:26.381Z,53.65
2017-08-30T23:53:00.912Z,56.92
2017-08-30T23:55:36.263Z,47.28
